Wetterdaten: aktuell Sonntag, 25.08.2019 09:00
Datum Zeit Temp. 2 m Feuchte 2 m Luftdruck Regen Wind Richtung Richtung Taupunkt Windchill Windben
25.08.2019 09:00 23,1 C 70 % 1020,0 hPa 0,0 l/m 6,5 km/h (2 Bft) O-SO 112 17,3 C 23,1 C 8,6 km/h (2 Bft)
25.08.2019 08:55 22,9 C 70 % 1020,0 hPa 0,0 l/m 7,2 km/h (2 Bft) O-SO 112 17,1 C 22,6 C 8,6 km/h (2 Bft)
25.08.2019 08:50 22,6 C 71 % 1020,0 hPa 0,0 l/m 5,4 km/h (2 Bft) SO 135 17,1 C 22,6 C 8,6 km/h (2 Bft)
25.08.2019 08:45 22,4 C 72 % 1020,0 hPa 0,0 l/m 4,0 km/h (1 Bft) O-SO 112 17,1 C 22,4 C 6,5 km/h (2 Bft)
25.08.2019 08:40 22,2 C 72 % 1020,0 hPa 0,0 l/m 5,0 km/h (1 Bft) O-SO 112 16,9 C 22,2 C 6,5 km/h (2 Bft)
25.08.2019 08:35 21,9 C 73 % 1020,0 hPa 0,0 l/m 5,8 km/h (2 Bft) O-SO 112 16,8 C 21,9 C 8,6 km/h (2 Bft)
25.08.2019 08:30 21,6 C 73 % 1020,0 hPa 0,0 l/m 1,8 km/h (1 Bft) O-SO 112 16,5 C 21,6 C 4,3 km/h (1 Bft)
25.08.2019 08:25 21,5 C 74 % 1020,0 hPa 0,0 l/m 5,4 km/h (2 Bft) SO 135 16,7 C 21,5 C 8,6 km/h (2 Bft)
25.08.2019 08:20 21,2 C 74 % 1020,0 hPa 0,0 l/m 1,8 km/h (1 Bft) O-SO 112 16,4 C 21,2 C 2,2 km/h (1 Bft)
25.08.2019 08:15 21,0 C 74 % 1020,0 hPa 0,0 l/m 5,0 km/h (1 Bft) O-SO 112 16,2 C 21,0 C 6,5 km/h (2 Bft)
25.08.2019 08:10 20,9 C 75 % 1020,0 hPa 0,0 l/m 4,3 km/h (1 Bft) O-SO 112 16,3 C 20,9 C 8,6 km/h (2 Bft)
25.08.2019 08:05 20,6 C 76 % 1020,0 hPa 0,0 l/m 4,7 km/h (1 Bft) O-SO 112 16,2 C 20,6 C 6,5 km/h (2 Bft)
25.08.2019 08:00 20,4 C 76 % 1020,0 hPa 0,0 l/m 4,7 km/h (1 Bft) SO 135 16,0 C 20,4 C 6,5 km/h (2 Bft)
25.08.2019 07:59 20,4 C 76 % 1020,0 hPa 0,0 l/m 4,7 km/h (1 Bft) SO 135 16,0 C 20,4 C 6,5 km/h (2 Bft)
25.08.2019 07:55 20,2 C 77 % 1020,0 hPa 0,0 l/m 5,8 km/h (2 Bft) SO 135 16,0 C 20,2 C 8,6 km/h (2 Bft)
25.08.2019 07:50 20,0 C 78 % 1020,0 hPa 0,0 l/m 6,1 km/h (2 Bft) SO 135 16,0 C 20,0 C 8,6 km/h (2 Bft)
25.08.2019 07:45 19,7 C 79 % 1020,0 hPa 0,0 l/m 5,0 km/h (1 Bft) SO 135 16,0 C 19,7 C 8,6 km/h (2 Bft)
25.08.2019 07:40 19,4 C 80 % 1020,0 hPa 0,0 l/m 3,6 km/h (1 Bft) O-SO 112 15,9 C 19,4 C 4,3 km/h (1 Bft)
25.08.2019 07:35 19,2 C 80 % 1020,0 hPa 0,0 l/m 4,3 km/h (1 Bft) SO 135 15,7 C 19,2 C 6,5 km/h (2 Bft)
25.08.2019 07:30 19,0 C 81 % 1020,0 hPa 0,0 l/m 3,6 km/h (1 Bft) SO 135 15,7 C 19,0 C 6,5 km/h (2 Bft)
25.08.2019 07:25 18,7 C 82 % 1020,0 hPa 0,0 l/m 4,7 km/h (1 Bft) O-SO 112 15,6 C 18,7 C 6,5 km/h (2 Bft)
25.08.2019 07:20 18,4 C 82 % 1020,0 hPa 0,0 l/m 3,6 km/h (1 Bft) SO 135 15,3 C 18,4 C 6,5 km/h (2 Bft)
25.08.2019 07:15 18,2 C 82 % 1020,0 hPa 0,0 l/m 2,2 km/h (1 Bft) O-SO 112 15,1 C 18,2 C 4,3 km/h (1 Bft)
25.08.2019 07:10 18,1 C 82 % 1020,0 hPa 0,0 l/m 4,0 km/h (1 Bft) SO 135 15,0 C 18,1 C 6,5 km/h (2 Bft)
25.08.2019 07:05 17,9 C 82 % 1020,0 hPa 0,0 l/m 3,6 km/h (1 Bft) S-SO 157 14,8 C 17,9 C 6,5 km/h (2 Bft)
25.08.2019 07:00 17,8 C 82 % 1020,0 hPa 0,0 l/m 6,5 km/h (2 Bft) SO 135 14,7 C 17,8 C 6,5 km/h (2 Bft)
25.08.2019 06:55 17,6 C 83 % 1020,0 hPa 0,0 l/m 5,4 km/h (2 Bft) SO 135 14,7 C 17,6 C 6,5 km/h (2 Bft)
25.08.2019 06:50 17,6 C 83 % 1020,0 hPa 0,0 l/m 2,9 km/h (1 Bft) SO 135 14,7 C 17,6 C 6,5 km/h (2 Bft)
25.08.2019 06:45 17,6 C 83 % 1020,0 hPa 0,0 l/m 4,0 km/h (1 Bft) S-SO 157 14,7 C 17,6 C 4,3 km/h (1 Bft)
25.08.2019 06:40 17,4 C 83 % 1020,0 hPa 0,0 l/m 4,7 km/h (1 Bft) SO 135 14,5 C 17,4 C 6,5 km/h (2 Bft)
25.08.2019 06:35 17,4 C 83 % 1020,0 hPa 0,0 l/m 5,4 km/h (2 Bft) S-SO 157 14,5 C 17,4 C 6,5 km/h (2 Bft)
25.08.2019 06:30 17,4 C 83 % 1020,0 hPa 0,0 l/m 4,0 km/h (1 Bft) S-SO 157 14,5 C 17,4 C 8,6 km/h (2 Bft)
25.08.2019 06:25 17,4 C 83 % 1020,0 hPa 0,0 l/m 3,6 km/h (1 Bft) S-SO 157 14,5 C 17,4 C 4,3 km/h (1 Bft)
25.08.2019 06:20 17,4 C 83 % 1020,0 hPa 0,0 l/m 4,0 km/h (1 Bft) SO 135 14,5 C 17,4 C 6,5 km/h (2 Bft)
25.08.2019 06:15 17,3 C 83 % 1020,0 hPa 0,0 l/m 4,0 km/h (1 Bft) S-SO 157 14,4 C 17,3 C 6,5 km/h (2 Bft)
25.08.2019 06:10 17,3 C 83 % 1020,0 hPa 0,0 l/m 5,8 km/h (2 Bft) SO 135 14,4 C 17,3 C 8,6 km/h (2 Bft)
25.08.2019 06:05 17,3 C 83 % 1020,0 hPa 0,0 l/m 3,2 km/h (1 Bft) S-SO 157 14,4 C 17,3 C 4,3 km/h (1 Bft)
25.08.2019 06:00 17,3 C 83 % 1020,0 hPa 0,0 l/m 3,6 km/h (1 Bft) S-SO 157 14,4 C 17,3 C 4,3 km/h (1 Bft)
25.08.2019 05:55 17,2 C 83 % 1020,0 hPa 0,0 l/m 4,3 km/h (1 Bft) S-SO 157 14,3 C 17,2 C 6,5 km/h (2 Bft)
25.08.2019 05:50 17,3 C 83 % 1020,0 hPa 0,0 l/m 4,0 km/h (1 Bft) S-SO 157 14,4 C 17,3 C 4,3 km/h (1 Bft)
25.08.2019 05:45 17,3 C 83 % 1020,0 hPa 0,0 l/m 1,8 km/h (1 Bft) S-SO 157 14,4 C 17,3 C 2,2 km/h (1 Bft)
25.08.2019 05:40 17,3 C 83 % 1020,0 hPa 0,0 l/m 2,9 km/h (1 Bft) SO 135 14,4 C 17,3 C 4,3 km/h (1 Bft)
25.08.2019 05:35 17,2 C 83 % 1020,0 hPa 0,0 l/m 3,2 km/h (1 Bft) SO 135 14,3 C 17,2 C 4,3 km/h (1 Bft)
25.08.2019 05:30 17,2 C 83 % 1020,0 hPa 0,0 l/m 4,0 km/h (1 Bft) S-SO 157 14,3 C 17,2 C 6,5 km/h (2 Bft)
25.08.2019 05:25 17,2 C 83 % 1020,0 hPa 0,0 l/m 5,0 km/h (1 Bft) SO 135 14,3 C 17,2 C 6,5 km/h (2 Bft)
25.08.2019 05:20 17,2 C 83 % 1020,0 hPa 0,0 l/m 4,0 km/h (1 Bft) SO 135 14,3 C 17,2 C 6,5 km/h (2 Bft)
25.08.2019 05:15 17,2 C 83 % 1020,0 hPa 0,0 l/m 3,6 km/h (1 Bft) SO 135 14,3 C 17,2 C 6,5 km/h (2 Bft)
25.08.2019 05:10 17,2 C 83 % 1020,0 hPa 0,0 l/m 3,2 km/h (1 Bft) SO 135 14,3 C 17,2 C 4,3 km/h (1 Bft)
25.08.2019 05:05 17,2 C 84 % 1020,0 hPa 0,0 l/m 4,7 km/h (1 Bft) SO 135 14,5 C 17,2 C 6,5 km/h (2 Bft)
25.08.2019 05:00 17,2 C 84 % 1020,0 hPa 0,0 l/m 2,9 km/h (1 Bft) SO 135 14,5 C 17,2 C 4,3 km/h (1 Bft)
25.08.2019 04:55 17,2 C 84 % 1020,0 hPa 0,0 l/m 5,0 km/h (1 Bft) O 90 14,5 C 17,2 C 6,5 km/h (2 Bft)
25.08.2019 04:50 17,1 C 84 % 1020,0 hPa 0,0 l/m 3,2 km/h (1 Bft) O-SO 112 14,4 C 17,1 C 6,5 km/h (2 Bft)
25.08.2019 04:45 17,0 C 84 % 1020,0 hPa 0,0 l/m 2,2 km/h (1 Bft) SO 135 14,3 C 17,0 C 4,3 km/h (1 Bft)
25.08.2019 04:40 17,0 C 84 % 1020,0 hPa 0,0 l/m 4,7 km/h (1 Bft) SO 135 14,3 C 17,0 C 6,5 km/h (2 Bft)
25.08.2019 04:35 16,9 C 84 % 1020,0 hPa 0,0 l/m 4,0 km/h (1 Bft) SO 135 14,2 C 16,9 C 6,5 km/h (2 Bft)
25.08.2019 04:30 16,8 C 84 % 1020,0 hPa 0,0 l/m 3,6 km/h (1 Bft) SO 135 14,1 C 16,8 C 6,5 km/h (2 Bft)
25.08.2019 04:25 16,8 C 84 % 1020,0 hPa 0,0 l/m 4,7 km/h (1 Bft) SO 135 14,1 C 16,8 C 6,5 km/h (2 Bft)
25.08.2019 04:20 16,7 C 84 % 1020,0 hPa 0,0 l/m 4,0 km/h (1 Bft) S-SO 157 14,0 C 16,7 C 4,3 km/h (1 Bft)
25.08.2019 04:15 16,8 C 84 % 1020,0 hPa 0,0 l/m 2,5 km/h (1 Bft) SO 135 14,1 C 16,8 C 4,3 km/h (1 Bft)
25.08.2019 04:10 16,8 C 84 % 1020,0 hPa 0,0 l/m 3,2 km/h (1 Bft) SO 135 14,1 C 16,8 C 4,3 km/h (1 Bft)
25.08.2019 04:05 16,8 C 84 % 1020,0 hPa 0,0 l/m 0,7 km/h (0 Bft) SO 135 14,1 C 16,8 C 2,2 km/h (1 Bft)
_ Min-Zeit 04:20 13:40 00:55 - 20:35 - - 01:15 04:20 20:35
Minimum _ 16,7 C 50 % 1020,0 hPa - 0,0 km/h (0 Bft) - - 13,7 C 16,7 C 0,0 km/h (0 Bft)
_ Max-Zeit 13:30 03:55 10:00 10:00 11:30 - - 09:00 13:45 11:30
Maximum _ 27,6 C 84 % 1023,0 hPa 0,0 l/m 13,7 km/h
N-NO (3 Bft)
- - 17,3 C 27,5 C 17,6 km/h
N-NO (3 Bft)
Durchschnitt _ 22,0 C 68 % 1021,2 hPa #0,0 l/m 4,4 km/h (1 Bft) SO - 15,5 C 21,9 C 6,2 km/h (2 Bft)